Weather at Picton Airport

Public forecast

Using degrees Celsius for public forecast. Weather courtesy of forecast.io.

Closest aviation weather report (METAR) to Picton Airport

Closest report is CFB Trenton, 18.5 nm (34.3 km) WNW.

2024/06/15 16:00 (retrieved 50 minutes ago)

CYTR 151600Z 36005KT 15SM FEW040 19/09 A3015 RMK CU2 DENSITY ALT 761FT SLP209

Closest aviation forecast (TAF) to Picton Airport

Closest forecast is CFB Trenton, 18.5 nm (34.3 km) WNW.

2024/06/15 12:42 (retrieved 4 hours ago)

TAF CYTR 151140Z 1512/1612 35005KT P6SM SKC FM151400 01008KT P6SM FEW040 BECMG 1516/1518 23008KT BECMG 1600/1602 VRB03KT RMK NXT FCST BY 151800Z